createdAt,value
2022-09-07T00:02:54.083Z,101280.06
2022-09-07T00:08:05.988Z,101274.47
2022-09-07T00:13:08.856Z,101276.91
2022-09-07T00:18:10.821Z,101272.84
2022-09-07T00:23:16.805Z,101280.31
2022-09-07T00:28:32.963Z,101277.75
2022-09-07T00:33:35.012Z,101280.78
2022-09-07T00:38:39.640Z,101277.44
2022-09-07T00:44:06.234Z,101277.72
2022-09-07T00:49:15.720Z,101277.16
2022-09-07T00:54:24.658Z,101270.41
2022-09-07T00:59:32.681Z,101260.00
2022-09-07T01:05:38.252Z,101245.19
2022-09-07T01:10:54.672Z,101253.28
2022-09-07T01:16:18.721Z,101257.84
2022-09-07T01:21:52.313Z,101255.28
2022-09-07T01:27:12.877Z,101259.13
2022-09-07T01:32:44.258Z,101263.09
2022-09-07T01:38:12.644Z,101247.06
2022-09-07T01:43:30.791Z,101243.72
2022-09-07T01:48:40.945Z,101239.19
2022-09-07T01:53:55.615Z,101224.78
2022-09-07T01:59:14.586Z,101228.97
2022-09-07T02:04:21.604Z,101220.81
2022-09-07T02:09:32.896Z,101221.53
2022-09-07T02:14:37.770Z,101210.16
2022-09-07T02:19:53.966Z,101202.03
2022-09-07T02:25:07.438Z,101193.88
2022-09-07T02:30:10.275Z,101200.50
2022-09-07T02:35:12.798Z,101193.66
2022-09-07T02:40:20.741Z,101199.91
2022-09-07T02:45:47.148Z,101189.00
2022-09-07T02:51:23.807Z,101184.03
2022-09-07T02:56:38.352Z,101177.41
2022-09-07T03:02:31.060Z,101167.19
2022-09-07T03:08:11.967Z,101171.13
2022-09-07T03:13:27.169Z,101169.63
2022-09-07T03:18:29.240Z,101165.69
2022-09-07T03:23:31.689Z,101170.44
2022-09-07T03:28:33.731Z,101163.59
2022-09-07T03:33:35.661Z,101166.25
2022-09-07T03:38:37.734Z,101162.19
2022-09-07T03:43:40.397Z,101165.34
2022-09-07T03:48:42.325Z,101166.50
2022-09-07T03:53:46.613Z,101157.22
2022-09-07T03:58:49.908Z,101164.63
2022-09-07T04:03:52.661Z,101154.66
2022-09-07T04:08:56.354Z,101160.91
2022-09-07T04:13:58.598Z,101164.38
2022-09-07T04:19:04.690Z,101164.25
2022-09-07T04:24:06.936Z,101155.72
2022-09-07T04:29:09.897Z,101165.78
2022-09-07T04:34:12.198Z,101166.81
2022-09-07T04:39:14.121Z,101167.50
2022-09-07T04:44:17.113Z,101162.16
2022-09-07T04:49:20.386Z,101168.53
2022-09-07T04:54:27.481Z,101165.41
2022-09-07T04:59:33.778Z,101173.28
2022-09-07T05:04:39.097Z,101165.41
2022-09-07T05:09:41.528Z,101175.03
2022-09-07T05:14:43.553Z,101171.44
2022-09-07T05:19:45.596Z,101174.56
2022-09-07T05:24:54.496Z,101183.72
2022-09-07T05:30:04.572Z,101186.63
2022-09-07T05:35:12.229Z,101202.16
2022-09-07T05:40:15.808Z,101212.00
2022-09-07T05:45:18.143Z,101224.75
2022-09-07T05:50:20.215Z,101212.94
2022-09-07T05:55:29.977Z,101223.59
2022-09-07T06:00:34.111Z,101228.00
2022-09-07T06:05:36.170Z,101233.22
2022-09-07T06:15:44.431Z,101260.63
2022-09-07T06:20:46.466Z,101268.31
2022-09-07T06:25:50.010Z,101272.06
2022-09-07T06:30:52.006Z,101264.44
2022-09-07T06:36:01.596Z,101252.06
2022-09-07T06:51:56.872Z,101279.94
2022-09-07T06:56:59.071Z,101294.91
2022-09-07T07:02:01.187Z,101294.59
2022-09-07T07:07:03.210Z,101288.84
2022-09-07T07:12:09.429Z,101285.63
2022-09-07T07:17:13.913Z,101290.25
2022-09-07T07:22:45.687Z,101301.50
2022-09-07T07:27:39.132Z,101293.50
2022-09-07T07:32:42.471Z,101292.34
2022-09-07T07:43:36.600Z,101279.22
2022-09-07T07:54:29.434Z,101283.44
2022-09-07T07:59:31.397Z,101288.16
2022-09-07T08:04:35.131Z,101280.34
2022-09-07T08:15:52.289Z,101302.38
2022-09-07T08:20:59.876Z,101299.44
2022-09-07T08:26:03.796Z,101297.38
2022-09-07T08:37:08.661Z,101312.50
2022-09-07T08:42:33.381Z,101311.69
2022-09-07T08:47:52.263Z,101316.94
2022-09-07T08:53:12.552Z,101328.75
2022-09-07T08:58:47.565Z,101326.63
2022-09-07T09:09:10.717Z,101315.72
2022-09-07T09:14:40.892Z,101322.53
2022-09-07T09:20:19.182Z,101317.72
2022-09-07T09:25:35.385Z,101318.97
2022-09-07T09:30:37.659Z,101318.34
2022-09-07T09:35:42.308Z,101307.50
2022-09-07T09:40:53.141Z,101311.63
2022-09-07T09:46:13.020Z,101310.59
2022-09-07T09:56:40.834Z,101299.81
2022-09-07T10:07:18.352Z,101285.59
2022-09-07T10:12:29.620Z,101284.50
2022-09-07T10:17:43.048Z,101278.53
2022-09-07T10:22:57.123Z,101270.63
2022-09-07T10:28:17.333Z,101261.34
2022-09-07T10:33:43.236Z,101257.09
2022-09-07T10:38:48.919Z,101247.38
2022-09-07T10:43:52.027Z,101248.59
2022-09-07T10:49:16.690Z,101245.28
2022-09-07T10:54:33.906Z,101239.28
2022-09-07T11:00:09.696Z,101242.97
2022-09-07T11:05:44.178Z,101242.97
2022-09-07T11:17:05.814Z,101232.94
2022-09-07T11:22:33.121Z,101228.13
2022-09-07T11:27:53.013Z,101224.03
2022-09-07T11:33:33.673Z,101213.88
2022-09-07T11:38:39.206Z,101209.72
2022-09-07T11:43:48.333Z,101207.59
2022-09-07T11:48:57.935Z,101199.69
2022-09-07T11:54:50.381Z,101188.00
2022-09-07T12:00:12.132Z,101167.63
2022-09-07T12:05:55.531Z,101170.41
2022-09-07T12:11:08.258Z,101165.00
2022-09-07T12:17:00.645Z,101150.06
2022-09-07T12:22:02.746Z,101153.53
2022-09-07T12:27:26.454Z,101150.16
2022-09-07T12:32:55.396Z,101143.28
2022-09-07T12:38:21.588Z,101129.47
2022-09-07T12:43:23.451Z,101115.28
2022-09-07T12:49:05.140Z,101118.84
2022-09-07T12:54:24.875Z,101117.16
2022-09-07T12:59:51.562Z,101105.09
2022-09-07T13:05:30.662Z,101109.84
2022-09-07T13:10:38.209Z,101094.06
2022-09-07T13:15:47.049Z,101093.38
2022-09-07T13:21:09.595Z,101098.00
2022-09-07T13:26:51.296Z,101083.69
2022-09-07T13:32:00.209Z,101075.72
2022-09-07T13:37:05.026Z,101074.59
2022-09-07T13:42:13.148Z,101069.84
2022-09-07T13:47:33.670Z,101057.38
2022-09-07T13:52:55.747Z,101047.66
2022-09-07T13:58:18.169Z,101056.72
2022-09-07T14:03:22.684Z,101056.19
2022-09-07T14:08:39.223Z,101055.00
2022-09-07T14:13:41.679Z,101045.19
2022-09-07T14:18:45.386Z,101034.38
2022-09-07T14:23:58.193Z,101019.63
2022-09-07T14:29:01.590Z,101012.59
2022-09-07T14:34:03.893Z,101012.50
2022-09-07T14:39:07.267Z,101015.94
2022-09-07T14:44:33.014Z,101002.97
2022-09-07T14:49:37.896Z,101003.75
2022-09-07T14:54:43.732Z,101010.16
2022-09-07T14:59:47.868Z,101006.59
2022-09-07T15:05:15.748Z,100994.00
2022-09-07T15:10:21.101Z,100993.13
2022-09-07T15:15:26.954Z,101001.09
2022-09-07T15:20:43.406Z,100998.72
2022-09-07T15:25:51.865Z,101012.53
2022-09-07T15:36:17.689Z,101015.38
2022-09-07T15:41:24.214Z,101023.81
2022-09-07T15:46:26.571Z,101007.69
2022-09-07T16:13:16.257Z,101016.44
2022-09-07T16:18:31.289Z,101004.47
2022-09-07T16:23:33.435Z,101006.13
2022-09-07T16:28:39.905Z,100992.06
2022-09-07T16:33:41.950Z,101000.72
2022-09-07T16:38:48.790Z,100987.09
2022-09-07T16:43:52.218Z,100977.84
2022-09-07T16:49:03.431Z,100980.00
2022-09-07T16:54:06.069Z,100999.06
2022-09-07T16:59:11.651Z,101003.00
2022-09-07T17:04:14.701Z,101012.16
2022-09-07T17:09:16.625Z,101006.50
2022-09-07T17:14:21.648Z,101006.41
2022-09-07T17:19:31.125Z,101000.25
2022-09-07T17:24:33.281Z,101010.66
2022-09-07T17:29:44.295Z,101014.69
2022-09-07T17:34:46.146Z,101002.72
2022-09-07T17:39:48.468Z,101010.75
2022-09-07T17:44:53.583Z,100992.41
2022-09-07T17:50:03.673Z,100974.00
2022-09-07T17:55:11.288Z,100976.72
2022-09-07T18:00:14.146Z,100977.06
2022-09-07T18:05:16.332Z,100971.38
2022-09-07T18:10:18.522Z,100964.91
2022-09-07T18:15:22.245Z,100979.66
2022-09-07T18:20:24.949Z,100989.19
2022-09-07T18:25:27.991Z,100987.13
2022-09-07T18:30:29.949Z,101001.50
2022-09-07T18:35:32.208Z,101001.06
2022-09-07T18:40:38.233Z,101004.63
2022-09-07T18:45:40.355Z,101004.19
2022-09-07T18:50:42.296Z,101008.59
2022-09-07T18:55:50.736Z,101005.81
2022-09-07T19:01:00.257Z,101016.56
2022-09-07T19:06:08.590Z,101017.31
2022-09-07T19:11:13.598Z,101030.84
2022-09-07T19:16:18.452Z,101035.22
2022-09-07T19:21:24.190Z,101027.94
2022-09-07T19:26:29.156Z,101029.13
2022-09-07T19:31:31.616Z,101031.09
2022-09-07T19:36:38.293Z,101032.72
2022-09-07T19:41:45.423Z,101031.09
2022-09-07T19:46:47.609Z,101029.88
2022-09-07T19:51:51.905Z,101033.47
2022-09-07T19:56:53.982Z,101041.06
2022-09-07T20:01:55.917Z,101050.63
2022-09-07T20:06:58.049Z,101051.00
2022-09-07T20:12:01.867Z,101061.38
2022-09-07T20:17:03.917Z,101061.81
2022-09-07T20:22:06.197Z,101063.00
2022-09-07T20:27:08.633Z,101063.25
2022-09-07T20:32:10.899Z,101062.38
2022-09-07T20:37:17.384Z,101056.34
2022-09-07T20:42:19.597Z,101058.72
2022-09-07T20:47:25.972Z,101052.69
2022-09-07T20:52:29.085Z,101057.47
2022-09-07T20:57:31.308Z,101060.72
2022-09-07T21:02:33.221Z,101055.91
2022-09-07T21:07:37.637Z,101051.94
2022-09-07T21:12:39.643Z,101057.53
2022-09-07T21:17:41.494Z,101051.56
2022-09-07T21:22:43.427Z,101053.56
2022-09-07T21:27:49.170Z,101033.56
2022-09-07T21:32:52.758Z,101028.69
2022-09-07T21:37:57.480Z,101018.22
2022-09-07T21:42:59.417Z,101019.41
2022-09-07T21:48:01.414Z,101014.19
2022-09-07T21:53:03.463Z,101012.19
2022-09-07T21:58:05.335Z,101022.94
2022-09-07T22:03:07.511Z,101008.16
2022-09-07T22:08:09.445Z,101016.53
2022-09-07T22:13:11.624Z,101018.53
2022-09-07T22:18:13.799Z,101030.91
2022-09-07T22:23:15.813Z,101037.16
2022-09-07T22:28:17.854Z,101039.44
2022-09-07T22:33:29.235Z,101030.56
2022-09-07T22:38:31.481Z,101039.59
2022-09-07T22:43:33.546Z,101041.06
2022-09-07T22:48:35.524Z,101039.03
2022-09-07T22:53:40.306Z,101053.28
2022-09-07T22:58:47.352Z,101053.22
2022-09-07T23:03:50.127Z,101046.81
2022-09-07T23:08:53.512Z,101040.41
2022-09-07T23:13:58.971Z,101041.97
2022-09-07T23:19:01.458Z,101061.81
2022-09-07T23:24:03.756Z,101046.59
2022-09-07T23:29:06.747Z,101036.03
2022-09-07T23:34:09.612Z,101036.28
2022-09-07T23:39:11.842Z,101041.44
2022-09-07T23:44:14.131Z,101042.97
2022-09-07T23:49:26.667Z,101036.13
2022-09-07T23:54:32.084Z,101036.06
2022-09-07T23:59:34.123Z,101034.00
